createdAt,value
2017-11-21T00:00:45.615Z,94.04
2017-11-21T00:01:45.607Z,94.42
2017-11-21T00:02:45.598Z,95.07
2017-11-21T00:03:45.598Z,94.89
2017-11-21T00:04:45.588Z,94.32
2017-11-21T00:05:45.591Z,94.89
2017-11-21T00:06:45.576Z,94.42
2017-11-21T00:07:45.568Z,94.79
2017-11-21T00:08:45.564Z,94.89
2017-11-21T00:09:45.561Z,96.31
2017-11-21T00:10:45.552Z,95.65
2017-11-21T00:11:45.548Z,94.70
2017-11-21T00:12:45.542Z,94.70
2017-11-21T00:13:45.546Z,94.51
2017-11-21T00:14:45.530Z,95.98
2017-11-21T00:15:45.525Z,94.89
2017-11-21T00:16:45.517Z,93.84
2017-11-21T00:17:45.514Z,93.94
2017-11-21T00:18:45.506Z,94.51
2017-11-21T00:19:45.500Z,95.22
2017-11-21T00:20:45.500Z,94.98
2017-11-21T00:21:45.485Z,94.42
2017-11-21T00:22:45.481Z,94.04
2017-11-21T00:23:45.476Z,94.23
2017-11-21T00:24:45.469Z,93.65
2017-11-21T00:25:45.465Z,94.51
2017-11-21T00:26:45.460Z,94.79
2017-11-21T00:27:45.448Z,94.60
2017-11-21T00:28:45.450Z,93.84
2017-11-21T00:29:45.434Z,93.27
2017-11-21T00:30:45.433Z,93.37
2017-11-21T00:31:45.425Z,94.51
2017-11-21T00:32:45.422Z,94.51
2017-11-21T00:33:45.414Z,94.04
2017-11-21T00:34:45.410Z,94.04
2017-11-21T00:35:45.405Z,93.65
2017-11-21T00:36:45.400Z,93.18
2017-11-21T00:37:45.384Z,94.13
2017-11-21T00:38:45.391Z,93.94
2017-11-21T00:39:45.389Z,93.94
2017-11-21T00:40:45.376Z,94.70
2017-11-21T00:41:45.374Z,94.70
2017-11-21T00:42:45.396Z,94.89
2017-11-21T00:43:45.354Z,94.42
2017-11-21T00:44:45.352Z,94.60
2017-11-21T00:45:45.343Z,93.84
2017-11-21T00:46:45.333Z,94.23
2017-11-21T00:47:45.332Z,93.94
2017-11-21T00:48:45.325Z,94.04
2017-11-21T00:49:45.320Z,94.70
2017-11-21T00:50:45.315Z,94.51
2017-11-21T00:51:45.309Z,94.13
2017-11-21T00:52:45.304Z,94.79
2017-11-21T00:53:45.300Z,95.36
2017-11-21T00:54:45.287Z,95.31
2017-11-21T00:55:45.300Z,95.22
2017-11-21T00:56:45.305Z,95.69
2017-11-21T00:57:45.278Z,95.45
2017-11-21T00:58:45.268Z,95.12
2017-11-21T00:59:45.261Z,95.03
2017-11-21T01:00:45.264Z,96.17
2017-11-21T01:01:45.248Z,95.03
2017-11-21T01:02:45.263Z,95.03
2017-11-21T01:03:45.249Z,94.70
2017-11-21T01:04:45.239Z,94.93
2017-11-21T01:05:45.229Z,95.79
2017-11-21T01:06:45.223Z,95.60
2017-11-21T01:07:45.215Z,95.50
2017-11-21T01:08:45.209Z,95.12
2017-11-21T01:09:45.202Z,94.93
2017-11-21T01:10:45.215Z,95.69
2017-11-21T01:11:45.192Z,95.12
2017-11-21T01:12:45.189Z,94.65
2017-11-21T01:13:45.188Z,95.41
2017-11-21T01:14:45.185Z,94.56
2017-11-21T01:15:45.168Z,93.89
2017-11-21T01:16:45.164Z,93.70
2017-11-21T01:17:45.151Z,95.12
2017-11-21T01:18:45.156Z,95.22
2017-11-21T01:19:45.149Z,94.74
2017-11-21T01:20:45.139Z,94.74
2017-11-21T01:21:45.131Z,94.56
2017-11-21T01:22:45.128Z,94.65
2017-11-21T01:23:45.121Z,94.74
2017-11-21T01:24:45.124Z,94.46
2017-11-21T01:25:45.113Z,95.31
2017-11-21T01:26:45.109Z,95.41
2017-11-21T01:27:45.099Z,95.60
2017-11-21T01:28:45.093Z,95.60
2017-11-21T01:29:45.154Z,95.50
2017-11-21T01:30:45.080Z,95.03
2017-11-21T01:31:45.075Z,95.41
2017-11-21T01:32:45.085Z,95.60
2017-11-21T01:33:45.067Z,95.50
2017-11-21T01:34:45.090Z,94.93
2017-11-21T01:35:45.137Z,95.22
2017-11-21T01:36:45.045Z,94.93
2017-11-21T01:37:45.050Z,94.56
2017-11-21T01:38:45.046Z,95.12
2017-11-21T01:39:45.031Z,95.69
2017-11-21T01:40:45.029Z,95.22
2017-11-21T01:41:45.046Z,95.12
2017-11-21T01:42:45.015Z,94.93
2017-11-21T01:43:45.008Z,94.74
2017-11-21T01:44:45.002Z,94.84
2017-11-21T01:45:45.004Z,94.27
2017-11-21T01:46:44.991Z,94.74
2017-11-21T01:47:44.985Z,94.65
2017-11-21T01:48:44.982Z,95.50
2017-11-21T01:49:44.971Z,95.60
2017-11-21T01:50:44.971Z,95.41
2017-11-21T01:51:44.957Z,95.12
2017-11-21T01:52:44.954Z,95.50
2017-11-21T01:53:44.952Z,95.69
2017-11-21T01:54:44.945Z,95.50
2017-11-21T01:55:44.943Z,94.46
2017-11-21T01:56:44.927Z,94.93
2017-11-21T01:57:44.923Z,94.93
2017-11-21T01:58:44.922Z,94.74
2017-11-21T01:59:44.914Z,94.46
2017-11-21T02:00:44.908Z,94.74
2017-11-21T02:01:44.906Z,95.98
2017-11-21T02:02:44.900Z,96.17
2017-11-21T02:03:44.894Z,96.45
2017-11-21T02:04:44.889Z,95.79
2017-11-21T02:05:44.877Z,95.31
2017-11-21T02:06:44.878Z,95.31
2017-11-21T02:07:44.898Z,95.50
2017-11-21T02:08:44.864Z,94.46
2017-11-21T02:09:44.862Z,94.56
2017-11-21T02:10:44.854Z,94.84
2017-11-21T02:11:44.851Z,94.65
2017-11-21T02:12:44.842Z,94.84
2017-11-21T02:13:44.836Z,96.73
2017-11-21T02:14:44.835Z,96.45
2017-11-21T02:15:44.825Z,95.98
2017-11-21T02:16:44.818Z,95.79
2017-11-21T02:17:44.812Z,95.31
2017-11-21T02:18:44.809Z,95.41
2017-11-21T02:19:44.803Z,95.41
2017-11-21T02:20:44.802Z,95.60
2017-11-21T02:21:44.784Z,95.88
2017-11-21T02:22:44.783Z,95.98
2017-11-21T02:23:44.794Z,95.69
2017-11-21T02:24:44.772Z,96.36
2017-11-21T02:25:44.766Z,96.64
2017-11-21T02:26:44.773Z,96.17
2017-11-21T02:27:44.764Z,96.17
2017-11-21T02:28:44.751Z,95.98
2017-11-21T02:29:44.738Z,95.03
2017-11-21T02:30:44.736Z,95.31
2017-11-21T02:31:44.733Z,95.60
2017-11-21T02:32:44.728Z,95.69
2017-11-21T02:33:44.723Z,95.22
2017-11-21T02:34:44.716Z,95.88
2017-11-21T02:35:44.714Z,96.45
2017-11-21T02:36:44.704Z,95.98
2017-11-21T02:37:44.701Z,95.69
2017-11-21T02:38:44.692Z,95.98
2017-11-21T02:39:44.707Z,96.92
2017-11-21T02:40:44.685Z,96.73
2017-11-21T02:41:44.677Z,97.69
2017-11-21T02:42:44.671Z,97.88
2017-11-21T02:43:44.671Z,97.69
2017-11-21T02:44:44.659Z,96.45
2017-11-21T02:45:44.654Z,98.07
2017-11-21T02:46:44.649Z,97.78
2017-11-21T02:47:44.644Z,96.26
2017-11-21T02:48:44.639Z,96.17
2017-11-21T02:49:44.632Z,95.88
2017-11-21T02:50:44.625Z,96.17
2017-11-21T02:51:44.626Z,96.17
2017-11-21T02:52:44.618Z,97.50
2017-11-21T02:53:44.609Z,96.92
2017-11-21T02:54:44.602Z,97.21
2017-11-21T02:55:44.609Z,96.26
2017-11-21T02:56:44.595Z,96.73
2017-11-21T02:57:44.586Z,96.55
2017-11-21T02:58:44.581Z,95.98
2017-11-21T02:59:44.577Z,96.08
2017-11-21T03:00:44.571Z,96.36
2017-11-21T03:01:44.584Z,96.55
2017-11-21T03:02:44.570Z,97.12
2017-11-21T03:03:44.554Z,97.97
2017-11-21T03:04:45.431Z,97.97
2017-11-21T03:05:45.427Z,98.25
2017-11-21T03:06:44.544Z,97.78
2017-11-21T03:07:44.537Z,97.97
2017-11-21T03:08:44.525Z,98.16
2017-11-21T03:09:44.520Z,97.97
2017-11-21T03:10:44.518Z,98.02
2017-11-21T03:11:44.511Z,97.88
2017-11-21T03:12:44.507Z,97.88
2017-11-21T03:13:44.497Z,98.21
2017-11-21T03:14:44.492Z,98.30
2017-11-21T03:15:44.490Z,98.30
2017-11-21T03:16:44.482Z,98.68
2017-11-21T03:17:44.479Z,98.87
2017-11-21T03:18:44.471Z,98.02
2017-11-21T03:19:44.470Z,97.92
2017-11-21T03:20:44.462Z,98.30
2017-11-21T03:21:44.455Z,98.30
2017-11-21T03:22:44.448Z,97.36
2017-11-21T03:23:44.445Z,96.88
2017-11-21T03:24:44.441Z,97.07
2017-11-21T03:25:44.435Z,96.69
2017-11-21T03:26:44.431Z,96.41
2017-11-21T03:27:44.420Z,96.97
2017-11-21T03:28:44.422Z,98.21
2017-11-21T03:29:44.413Z,98.21
2017-11-21T03:30:44.410Z,97.55
2017-11-21T03:31:44.402Z,97.55
2017-11-21T03:32:44.395Z,97.74
2017-11-21T03:33:44.390Z,98.11
2017-11-21T03:34:44.387Z,97.64
2017-11-21T03:35:44.377Z,97.45
2017-11-21T03:36:44.375Z,97.26
2017-11-21T03:37:44.367Z,97.07
2017-11-21T03:38:44.366Z,97.36
2017-11-21T03:39:44.359Z,97.07
2017-11-21T03:40:44.358Z,97.26
2017-11-21T03:41:44.346Z,97.55
2017-11-21T03:42:44.348Z,96.97
2017-11-21T03:43:44.333Z,97.45
2017-11-21T03:44:44.329Z,97.83
2017-11-21T03:45:44.333Z,97.92
2017-11-21T03:46:44.326Z,97.74
2017-11-21T03:47:44.322Z,96.88
2017-11-21T03:48:44.312Z,97.55
2017-11-21T03:49:44.304Z,97.64
2017-11-21T03:50:44.302Z,97.07
2017-11-21T03:51:44.296Z,98.02
2017-11-21T03:52:44.287Z,97.17
2017-11-21T03:53:44.286Z,98.02
2017-11-21T03:54:44.282Z,98.40
2017-11-21T03:55:44.277Z,97.45
2017-11-21T03:56:44.271Z,97.55
2017-11-21T03:57:44.264Z,98.02
2017-11-21T03:58:44.260Z,98.21
2017-11-21T03:59:44.260Z,98.40
2017-11-21T04:00:44.246Z,98.87
2017-11-21T04:01:44.238Z,98.11
2017-11-21T04:02:44.243Z,98.40
2017-11-21T04:03:44.231Z,98.11
2017-11-21T04:04:44.230Z,98.11
2017-11-21T04:05:44.226Z,97.45
2017-11-21T04:06:44.225Z,97.74
2017-11-21T04:07:44.213Z,97.07
2017-11-21T04:08:44.207Z,96.97
2017-11-21T04:09:44.201Z,97.36
2017-11-21T04:10:44.196Z,97.74
2017-11-21T04:11:44.193Z,97.74
2017-11-21T04:12:44.182Z,97.55
2017-11-21T04:13:44.179Z,97.07
2017-11-21T04:14:44.176Z,97.92
2017-11-21T04:15:44.171Z,98.11
2017-11-21T04:16:44.168Z,98.02
2017-11-21T04:17:44.159Z,98.02
2017-11-21T04:18:44.160Z,98.11
2017-11-21T04:19:44.149Z,97.92
2017-11-21T04:20:44.145Z,98.11
2017-11-21T04:21:44.152Z,98.30
2017-11-21T04:22:44.156Z,99.26
2017-11-21T04:23:44.131Z,99.16
2017-11-21T04:24:44.128Z,98.97
2017-11-21T04:25:44.115Z,98.78
2017-11-21T04:26:44.108Z,98.68
2017-11-21T04:27:44.143Z,98.59
2017-11-21T04:28:44.104Z,99.06
2017-11-21T04:29:44.101Z,98.87
2017-11-21T04:30:44.107Z,98.97
2017-11-21T04:31:44.093Z,99.63
2017-11-21T04:32:44.088Z,99.73
2017-11-21T04:33:44.080Z,99.82
2017-11-21T04:34:44.072Z,99.99
2017-11-21T04:35:44.064Z,99.99
2017-11-21T04:36:44.059Z,99.99
2017-11-21T04:37:44.060Z,99.99
2017-11-21T04:38:44.052Z,99.99
2017-11-21T04:39:44.045Z,99.99
2017-11-21T04:40:44.037Z,99.99
2017-11-21T04:41:44.036Z,99.99
2017-11-21T04:42:44.028Z,99.99
2017-11-21T04:43:44.028Z,99.99
2017-11-21T04:44:44.017Z,99.99
2017-11-21T04:45:44.014Z,99.91
2017-11-21T04:46:44.016Z,99.91
2017-11-21T04:47:44.003Z,99.44
2017-11-21T04:48:43.996Z,99.99
2017-11-21T04:49:43.997Z,99.91
2017-11-21T04:50:43.992Z,99.99
2017-11-21T04:51:43.983Z,99.99
2017-11-21T04:52:43.980Z,99.73
2017-11-21T04:53:43.972Z,99.99
2017-11-21T04:54:43.982Z,99.99
2017-11-21T04:55:43.965Z,99.99
2017-11-21T04:56:43.962Z,99.99
2017-11-21T04:57:43.953Z,99.97
2017-11-21T04:58:43.947Z,99.99
2017-11-21T04:59:43.942Z,99.99
2017-11-21T05:00:43.937Z,99.99
2017-11-21T05:01:43.929Z,99.99
2017-11-21T05:02:43.928Z,99.99
2017-11-21T05:03:43.924Z,99.99
2017-11-21T05:04:43.916Z,99.99
2017-11-21T05:05:43.911Z,99.49
2017-11-21T05:06:43.912Z,99.21
2017-11-21T05:07:43.906Z,99.11
2017-11-21T05:08:43.896Z,99.02
2017-11-21T05:09:43.891Z,99.02
2017-11-21T05:10:43.886Z,99.11
2017-11-21T05:11:43.882Z,98.92
2017-11-21T05:12:43.877Z,99.30
2017-11-21T05:13:43.870Z,99.58
2017-11-21T05:14:43.864Z,99.49
2017-11-21T05:15:43.860Z,99.40
2017-11-21T05:16:43.856Z,98.83
2017-11-21T05:17:43.853Z,99.21
2017-11-21T05:18:43.844Z,99.02
2017-11-21T05:19:43.842Z,99.49
2017-11-21T05:20:43.831Z,99.02
2017-11-21T05:21:43.825Z,99.68
2017-11-21T05:22:43.828Z,99.40
2017-11-21T05:23:43.819Z,99.68
2017-11-21T05:24:43.815Z,99.99
2017-11-21T05:25:43.818Z,99.99
2017-11-21T05:26:43.806Z,99.87
2017-11-21T05:27:43.809Z,99.49
2017-11-21T05:28:43.795Z,99.77
2017-11-21T05:29:43.800Z,99.58
2017-11-21T05:30:43.786Z,99.49
2017-11-21T05:31:43.786Z,99.11
2017-11-21T05:32:43.770Z,99.99
2017-11-21T05:33:43.773Z,99.99
2017-11-21T05:34:43.769Z,99.99
2017-11-21T05:35:43.767Z,99.99
2017-11-21T05:36:43.762Z,99.97
2017-11-21T05:37:43.749Z,99.99
2017-11-21T05:38:43.744Z,99.99
2017-11-21T05:39:43.746Z,99.58
2017-11-21T05:40:43.738Z,99.77
2017-11-21T05:41:43.729Z,99.99
2017-11-21T05:42:43.724Z,99.87
2017-11-21T05:43:43.727Z,99.99
2017-11-21T05:44:43.715Z,99.99
2017-11-21T05:45:43.712Z,99.99
2017-11-21T05:46:43.706Z,99.99
2017-11-21T05:47:43.703Z,99.99
2017-11-21T05:48:43.696Z,99.99
2017-11-21T05:49:43.690Z,99.99
2017-11-21T05:50:43.687Z,99.99
2017-11-21T05:51:43.685Z,99.99
2017-11-21T05:52:43.670Z,99.99
2017-11-21T05:53:43.672Z,99.99
2017-11-21T05:54:43.669Z,99.99
2017-11-21T05:55:43.656Z,99.99
2017-11-21T05:56:43.655Z,99.99
2017-11-21T05:57:43.659Z,99.99
2017-11-21T05:58:43.647Z,99.99
2017-11-21T05:59:43.645Z,99.99
2017-11-21T06:00:43.636Z,99.99
2017-11-21T06:01:43.636Z,99.99
2017-11-21T06:02:43.628Z,99.99
2017-11-21T06:03:43.622Z,99.77
2017-11-21T06:04:43.613Z,99.99
2017-11-21T06:05:43.615Z,99.97
2017-11-21T06:06:43.609Z,99.99
2017-11-21T06:07:43.599Z,99.99
2017-11-21T06:08:43.596Z,99.87
2017-11-21T06:09:43.590Z,99.99
2017-11-21T06:10:43.590Z,99.87
2017-11-21T06:11:43.589Z,99.99
2017-11-21T06:12:43.576Z,99.99
2017-11-21T06:13:43.571Z,99.99
2017-11-21T06:14:43.575Z,99.99
2017-11-21T06:15:43.564Z,99.99
2017-11-21T06:16:43.562Z,99.99
2017-11-21T06:17:43.578Z,99.99
2017-11-21T06:18:43.557Z,99.99
2017-11-21T06:19:43.557Z,99.99
2017-11-21T06:20:43.548Z,99.99
2017-11-21T06:21:43.535Z,99.99
2017-11-21T06:22:43.533Z,99.99
2017-11-21T06:23:43.527Z,99.99
2017-11-21T06:24:43.519Z,99.99
2017-11-21T06:25:43.514Z,99.99
2017-11-21T06:26:43.511Z,99.99
2017-11-21T06:27:43.515Z,99.99
2017-11-21T06:28:43.500Z,99.99
2017-11-21T06:29:43.496Z,99.99
2017-11-21T06:30:43.498Z,99.99
2017-11-21T06:31:43.486Z,99.99
2017-11-21T06:32:43.481Z,99.99
2017-11-21T06:33:43.477Z,99.99
2017-11-21T06:34:43.472Z,99.99
2017-11-21T06:35:43.467Z,99.99
2017-11-21T06:36:43.467Z,99.99
2017-11-21T06:37:43.459Z,99.99
2017-11-21T06:38:43.452Z,99.99
2017-11-21T06:39:43.450Z,99.99
2017-11-21T06:40:43.441Z,99.99
2017-11-21T06:41:43.438Z,99.99
2017-11-21T06:42:43.432Z,99.99
2017-11-21T06:43:43.430Z,99.99
2017-11-21T06:44:43.425Z,99.99
2017-11-21T06:45:43.422Z,99.99
2017-11-21T06:46:43.659Z,99.99
2017-11-21T06:47:43.413Z,99.99
2017-11-21T06:48:43.414Z,99.99
2017-11-21T06:49:43.422Z,99.99
2017-11-21T06:50:43.396Z,99.99
2017-11-21T06:51:43.391Z,99.99
2017-11-21T06:52:43.388Z,99.99
2017-11-21T06:53:43.383Z,99.99
2017-11-21T06:54:43.377Z,99.99
2017-11-21T06:55:43.372Z,99.99
2017-11-21T06:56:43.441Z,99.99
2017-11-21T06:57:43.362Z,99.99
2017-11-21T06:58:43.362Z,99.99
2017-11-21T06:59:43.352Z,99.99
2017-11-21T07:00:43.347Z,99.99
2017-11-21T07:01:43.348Z,99.99
2017-11-21T07:02:43.337Z,99.99
2017-11-21T07:03:43.330Z,99.99
2017-11-21T07:04:43.325Z,99.99
2017-11-21T07:05:43.324Z,99.99
2017-11-21T07:06:43.318Z,99.99
2017-11-21T07:07:43.318Z,99.83
2017-11-21T07:08:43.311Z,99.54
2017-11-21T07:09:43.309Z,99.54
2017-11-21T07:10:43.300Z,99.73
2017-11-21T07:11:43.303Z,99.83
2017-11-21T07:12:43.296Z,99.54
2017-11-21T07:13:43.297Z,99.44
2017-11-21T07:14:43.284Z,99.26
2017-11-21T07:15:43.289Z,98.88
2017-11-21T07:16:43.289Z,99.73
2017-11-21T07:17:43.292Z,99.26
2017-11-21T07:18:43.268Z,99.83
2017-11-21T07:19:43.285Z,99.64
2017-11-21T07:20:43.265Z,99.64
2017-11-21T07:21:43.279Z,99.26
2017-11-21T07:22:43.249Z,98.59
2017-11-21T07:23:43.245Z,99.92
2017-11-21T07:24:43.238Z,99.07
2017-11-21T07:25:43.484Z,99.44
2017-11-21T07:26:43.228Z,99.83
2017-11-21T07:27:43.234Z,99.83
2017-11-21T07:28:43.220Z,98.97
2017-11-21T07:29:43.221Z,99.26
2017-11-21T07:30:43.216Z,98.88
2017-11-21T07:31:43.212Z,98.50
2017-11-21T07:32:43.208Z,98.40
2017-11-21T07:33:43.202Z,98.88
2017-11-21T07:34:43.193Z,98.79
2017-11-21T07:35:43.192Z,99.11
2017-11-21T07:36:43.188Z,98.69
2017-11-21T07:37:43.186Z,98.26
2017-11-21T07:38:43.178Z,98.17
2017-11-21T07:39:43.175Z,98.17
2017-11-21T07:40:43.170Z,98.93
2017-11-21T07:41:43.160Z,98.50
2017-11-21T07:42:43.164Z,97.97
2017-11-21T07:43:43.156Z,98.12
2017-11-21T07:44:43.155Z,97.97
2017-11-21T07:45:43.148Z,97.60
2017-11-21T07:46:43.146Z,98.17
2017-11-21T07:47:43.139Z,97.88
2017-11-21T07:48:43.139Z,97.60
2017-11-21T07:49:43.130Z,96.93
2017-11-21T07:50:43.127Z,97.88
2017-11-21T07:51:43.126Z,96.93
2017-11-21T07:52:43.119Z,97.50
2017-11-21T07:53:43.128Z,97.88
2017-11-21T07:54:43.116Z,97.60
2017-11-21T07:55:43.106Z,97.69
2017-11-21T07:56:43.103Z,97.78
2017-11-21T07:57:43.109Z,96.93
2017-11-21T07:58:43.090Z,97.50
2017-11-21T07:59:43.096Z,97.41
2017-11-21T08:00:43.083Z,97.22
2017-11-21T08:01:43.086Z,96.45
2017-11-21T08:02:43.074Z,97.12
2017-11-21T08:03:43.074Z,97.12
2017-11-21T08:04:43.070Z,96.93
2017-11-21T08:05:43.068Z,97.12
2017-11-21T08:06:43.059Z,96.93
2017-11-21T08:07:43.066Z,96.55
2017-11-21T08:08:43.055Z,96.55
2017-11-21T08:09:43.052Z,96.74
2017-11-21T08:10:43.047Z,96.55
2017-11-21T08:11:43.044Z,96.93
2017-11-21T08:12:43.039Z,96.65
2017-11-21T08:13:43.034Z,96.74
2017-11-21T08:14:43.029Z,96.55
2017-11-21T08:15:43.022Z,96.74
2017-11-21T08:16:43.040Z,96.65
2017-11-21T08:17:43.018Z,97.22
2017-11-21T08:18:43.016Z,96.74
2017-11-21T08:19:43.019Z,96.65
2017-11-21T08:20:43.005Z,96.84
2017-11-21T08:21:43.016Z,96.65
2017-11-21T08:22:42.999Z,97.60
2017-11-21T08:23:42.999Z,97.12
2017-11-21T08:24:42.986Z,97.22
2017-11-21T08:25:42.988Z,96.45
2017-11-21T08:26:42.981Z,96.45
2017-11-21T08:27:42.980Z,96.55
2017-11-21T08:28:42.982Z,96.65
2017-11-21T08:29:42.970Z,96.65
2017-11-21T08:30:42.968Z,96.93
2017-11-21T08:31:42.961Z,96.74
2017-11-21T08:32:42.961Z,96.45
2017-11-21T08:33:42.959Z,97.03
2017-11-21T08:34:42.953Z,96.65
2017-11-21T08:35:42.941Z,96.93
2017-11-21T08:36:42.948Z,96.65
2017-11-21T08:37:42.937Z,96.36
2017-11-21T08:38:42.946Z,96.65
2017-11-21T08:39:42.937Z,96.45
2017-11-21T08:40:42.932Z,96.17
2017-11-21T08:41:42.928Z,96.45
2017-11-21T08:42:42.927Z,95.60
2017-11-21T08:43:42.924Z,96.08
2017-11-21T08:44:42.913Z,95.79
2017-11-21T08:45:42.908Z,96.36
2017-11-21T08:46:42.911Z,94.65
2017-11-21T08:47:42.905Z,95.46
2017-11-21T08:48:42.903Z,95.65
2017-11-21T08:49:42.894Z,95.27
2017-11-21T08:50:42.893Z,95.94
2017-11-21T08:51:42.888Z,95.75
2017-11-21T08:52:42.882Z,96.12
2017-11-21T08:53:42.884Z,95.65
2017-11-21T08:54:42.883Z,95.94
2017-11-21T08:55:42.876Z,95.70
2017-11-21T08:56:42.868Z,96.26
2017-11-21T08:57:42.868Z,96.08
2017-11-21T08:58:42.873Z,96.41
2017-11-21T08:59:42.874Z,95.89
2017-11-21T09:00:42.876Z,95.94
2017-11-21T09:01:42.858Z,95.36
2017-11-21T09:02:42.847Z,96.50
2017-11-21T09:03:42.847Z,95.94
2017-11-21T09:04:42.842Z,95.56
2017-11-21T09:05:42.835Z,96.12
2017-11-21T09:06:42.838Z,96.31
2017-11-21T09:07:42.834Z,96.89
2017-11-21T09:08:42.833Z,96.31
2017-11-21T09:09:42.825Z,96.69
2017-11-21T09:10:42.822Z,96.60
2017-11-21T09:11:42.822Z,97.17
2017-11-21T09:12:42.813Z,97.36
2017-11-21T09:13:42.809Z,97.36
2017-11-21T09:14:42.813Z,96.50
2017-11-21T09:15:42.805Z,96.98
2017-11-21T09:16:42.801Z,96.69
2017-11-21T09:17:42.798Z,96.50
2017-11-21T09:18:42.808Z,97.17
2017-11-21T09:19:42.793Z,97.08
2017-11-21T09:20:42.788Z,95.65
2017-11-21T09:21:42.787Z,95.56
2017-11-21T09:22:42.784Z,95.75
2017-11-21T09:23:42.780Z,95.94
2017-11-21T09:24:42.776Z,94.98
2017-11-21T09:25:42.771Z,95.94
2017-11-21T09:26:42.776Z,96.03
2017-11-21T09:27:42.767Z,96.31
2017-11-21T09:28:42.766Z,95.56
2017-11-21T09:29:42.760Z,95.84
2017-11-21T09:30:42.759Z,94.98
2017-11-21T09:31:42.755Z,95.65
2017-11-21T09:32:42.752Z,95.84
2017-11-21T09:33:42.747Z,95.65
2017-11-21T09:34:42.756Z,95.84
2017-11-21T09:35:42.746Z,95.84
2017-11-21T09:36:42.741Z,94.98
2017-11-21T09:37:42.739Z,95.27
2017-11-21T09:38:42.751Z,95.84
2017-11-21T09:39:42.729Z,95.84
2017-11-21T09:40:42.729Z,95.65
2017-11-21T09:41:42.724Z,95.17
2017-11-21T09:42:42.722Z,95.36
2017-11-21T09:43:42.718Z,95.84
2017-11-21T09:44:42.719Z,95.36
2017-11-21T09:45:42.711Z,95.17
2017-11-21T09:46:42.710Z,95.46
2017-11-21T09:47:42.716Z,94.79
2017-11-21T09:48:42.737Z,95.17
2017-11-21T09:49:42.697Z,95.84
2017-11-21T09:50:42.699Z,95.17
2017-11-21T09:51:42.693Z,94.79
2017-11-21T09:52:42.697Z,94.70
2017-11-21T09:53:42.690Z,94.89
2017-11-21T09:54:42.685Z,94.60
2017-11-21T09:55:42.713Z,94.79
2017-11-21T09:56:42.680Z,94.89
2017-11-21T09:57:42.707Z,95.17
2017-11-21T09:58:42.730Z,94.89
2017-11-21T09:59:42.675Z,94.79
2017-11-21T10:00:42.666Z,94.79
2017-11-21T10:01:42.668Z,94.60
2017-11-21T10:02:42.661Z,95.17
2017-11-21T10:03:42.657Z,94.74
2017-11-21T10:04:42.656Z,95.12
2017-11-21T10:05:42.652Z,93.98
2017-11-21T10:06:42.646Z,94.27
2017-11-21T10:07:42.647Z,94.18
2017-11-21T10:08:42.650Z,95.03
2017-11-21T10:09:42.639Z,94.84
2017-11-21T10:10:42.635Z,94.60
2017-11-21T10:11:42.632Z,94.32
2017-11-21T10:12:42.633Z,94.70
2017-11-21T10:13:42.634Z,95.03
2017-11-21T10:14:42.654Z,95.03
2017-11-21T10:15:42.622Z,94.74
2017-11-21T10:16:42.621Z,94.74
2017-11-21T10:17:42.620Z,94.93
2017-11-21T10:18:42.619Z,94.65
2017-11-21T10:19:42.614Z,95.03
2017-11-21T10:20:42.609Z,94.93
2017-11-21T10:21:42.609Z,95.12
2017-11-21T10:22:42.606Z,95.41
2017-11-21T10:23:42.602Z,95.03
2017-11-21T10:24:42.599Z,94.74
2017-11-21T10:25:42.595Z,95.12
2017-11-21T10:26:42.596Z,95.89
2017-11-21T10:27:42.588Z,95.32
2017-11-21T10:28:42.588Z,95.32
2017-11-21T10:29:42.586Z,95.89
2017-11-21T10:30:42.581Z,96.08
2017-11-21T10:31:42.580Z,95.79
2017-11-21T10:32:42.574Z,95.32
2017-11-21T10:33:42.581Z,96.31
2017-11-21T10:34:42.565Z,96.12
2017-11-21T10:35:42.569Z,95.94
2017-11-21T10:36:42.559Z,96.41
2017-11-21T10:37:42.567Z,96.41
2017-11-21T10:38:42.556Z,96.79
2017-11-21T10:39:42.556Z,97.27
2017-11-21T10:40:42.551Z,97.74
2017-11-21T10:41:42.550Z,97.64
2017-11-21T10:42:42.546Z,97.83
2017-11-21T10:43:42.539Z,98.41
2017-11-21T10:44:42.541Z,98.50
2017-11-21T10:45:42.533Z,97.83
2017-11-21T10:46:42.535Z,98.41
2017-11-21T10:47:42.538Z,97.45
2017-11-21T10:48:42.529Z,97.74
2017-11-21T10:49:42.527Z,98.22
2017-11-21T10:50:42.522Z,98.03
2017-11-21T10:51:42.517Z,97.93
2017-11-21T10:52:42.523Z,97.74
2017-11-21T10:53:42.512Z,97.74
2017-11-21T10:54:42.521Z,97.64
2017-11-21T10:55:42.503Z,97.74
2017-11-21T10:56:42.503Z,97.55
2017-11-21T10:57:42.499Z,98.22
2017-11-21T10:58:42.498Z,97.83
2017-11-21T10:59:42.492Z,97.64
2017-11-21T11:00:42.498Z,97.74
2017-11-21T11:01:42.494Z,97.45
2017-11-21T11:02:42.484Z,97.74
2017-11-21T11:03:42.493Z,97.64
2017-11-21T11:04:42.488Z,97.83
2017-11-21T11:05:42.471Z,98.50
2017-11-21T11:06:42.464Z,97.83
2017-11-21T11:07:42.481Z,97.74
2017-11-21T11:08:42.458Z,98.41
2017-11-21T11:09:42.472Z,97.74
2017-11-21T11:10:42.457Z,97.74
2017-11-21T11:11:42.454Z,98.22
2017-11-21T11:12:42.452Z,98.31
2017-11-21T11:13:42.445Z,98.22
2017-11-21T11:14:42.453Z,98.41
2017-11-21T11:15:42.446Z,98.03
2017-11-21T11:16:42.443Z,97.74
2017-11-21T11:17:42.461Z,98.31
2017-11-21T11:18:42.433Z,98.31
2017-11-21T11:19:42.431Z,97.74
2017-11-21T11:20:42.429Z,98.22
2017-11-21T11:21:42.424Z,98.22
2017-11-21T11:22:42.419Z,97.64
2017-11-21T11:23:42.428Z,97.79
2017-11-21T11:24:42.412Z,97.36
2017-11-21T11:25:42.412Z,97.31
2017-11-21T11:26:42.409Z,97.36
2017-11-21T11:27:42.406Z,97.36
2017-11-21T11:28:42.397Z,97.22
2017-11-21T11:29:42.400Z,97.41
2017-11-21T11:30:42.398Z,97.31
2017-11-21T11:31:42.392Z,96.65
2017-11-21T11:32:42.391Z,96.74
2017-11-21T11:33:42.388Z,96.65
2017-11-21T11:34:42.383Z,96.84
2017-11-21T11:35:42.377Z,96.74
2017-11-21T11:36:42.377Z,97.22
2017-11-21T11:37:42.377Z,96.55
2017-11-21T11:38:42.367Z,96.84
2017-11-21T11:39:42.374Z,96.74
2017-11-21T11:40:42.364Z,96.74
2017-11-21T11:41:42.363Z,96.46
2017-11-21T11:42:42.358Z,96.74
2017-11-21T11:43:42.360Z,96.55
2017-11-21T11:44:42.361Z,96.46
2017-11-21T11:45:42.351Z,96.26
2017-11-21T11:46:42.354Z,96.55
2017-11-21T11:47:42.350Z,96.55
2017-11-21T11:48:42.356Z,96.55
2017-11-21T11:49:42.338Z,96.17
2017-11-21T11:50:42.337Z,96.46
2017-11-21T11:51:42.333Z,96.36
2017-11-21T11:52:42.328Z,97.03
2017-11-21T11:53:42.329Z,96.84
2017-11-21T11:54:42.330Z,96.74
2017-11-21T11:55:42.322Z,96.26
2017-11-21T11:56:42.325Z,97.13
2017-11-21T11:57:42.328Z,96.46
2017-11-21T11:58:42.316Z,95.79
2017-11-21T11:59:42.313Z,95.98
2017-11-21T12:00:42.315Z,95.98
2017-11-21T12:01:42.307Z,95.79
2017-11-21T12:02:42.303Z,95.98
2017-11-21T12:03:42.306Z,96.55
2017-11-21T12:04:42.298Z,95.89
2017-11-21T12:05:42.294Z,95.79
2017-11-21T12:06:42.296Z,96.08
2017-11-21T12:07:42.292Z,95.89
2017-11-21T12:08:42.300Z,95.89
2017-11-21T12:09:42.292Z,95.70
2017-11-21T12:10:42.279Z,96.17
2017-11-21T12:11:42.276Z,96.46
2017-11-21T12:12:42.279Z,96.26
2017-11-21T12:13:42.271Z,96.08
2017-11-21T12:14:42.273Z,96.46
2017-11-21T12:15:42.266Z,95.79
2017-11-21T12:16:42.264Z,95.89
2017-11-21T12:17:42.262Z,95.70
2017-11-21T12:18:42.261Z,96.55
2017-11-21T12:19:42.255Z,96.17
2017-11-21T12:20:42.254Z,96.74
2017-11-21T12:21:42.250Z,96.84
2017-11-21T12:22:42.254Z,96.55
2017-11-21T12:23:42.243Z,97.13
2017-11-21T12:24:42.240Z,96.26
2017-11-21T12:25:42.241Z,96.55
2017-11-21T12:26:42.236Z,96.46
2017-11-21T12:27:42.231Z,96.36
2017-11-21T12:28:42.228Z,96.74
2017-11-21T12:29:42.226Z,97.13
2017-11-21T12:30:42.221Z,96.94
2017-11-21T12:31:42.234Z,96.84
2017-11-21T12:32:42.219Z,96.55
2017-11-21T12:33:42.216Z,97.13
2017-11-21T12:34:42.206Z,96.65
2017-11-21T12:35:42.213Z,96.46
2017-11-21T12:36:42.205Z,96.94
2017-11-21T12:37:42.202Z,96.36
2017-11-21T12:38:42.200Z,96.26
2017-11-21T12:39:42.199Z,97.03
2017-11-21T12:40:42.190Z,96.74
2017-11-21T12:41:42.192Z,97.13
2017-11-21T12:42:42.191Z,96.84
2017-11-21T12:43:42.177Z,96.65
2017-11-21T12:44:42.180Z,96.94
2017-11-21T12:45:42.178Z,97.03
2017-11-21T12:46:42.175Z,96.55
2017-11-21T12:47:42.172Z,96.65
2017-11-21T12:48:42.169Z,96.65
2017-11-21T12:49:42.170Z,96.26
2017-11-21T12:50:42.167Z,95.89
2017-11-21T12:51:42.164Z,95.79
2017-11-21T12:52:42.159Z,96.55